sensor_id;sensor_type;location;lat;lon;timestamp;temperature;humidity
9466;DHT22;4771;48.726;9.006;2022-12-07T00:00:50;4.90;99.90
9466;DHT22;4771;48.726;9.006;2022-12-07T00:03:16;4.90;99.90
9466;DHT22;4771;48.726;9.006;2022-12-07T00:05:43;4.80;99.90
9466;DHT22;4771;48.726;9.006;2022-12-07T00:08:11;4.80;99.90
9466;DHT22;4771;48.726;9.006;2022-12-07T00:10:38;4.60;99.90
9466;DHT22;4771;48.726;9.006;2022-12-07T00:13:05;4.60;99.90
9466;DHT22;4771;48.726;9.006;2022-12-07T00:15:33;4.70;99.90
9466;DHT22;4771;48.726;9.006;2022-12-07T00:18:01;4.80;99.90
9466;DHT22;4771;48.726;9.006;2022-12-07T00:20:28;4.50;99.90
9466;DHT22;4771;48.726;9.006;2022-12-07T00:22:55;4.70;99.90
9466;DHT22;4771;48.726;9.006;2022-12-07T00:25:24;4.60;99.90
9466;DHT22;4771;48.726;9.006;2022-12-07T00:27:52;4.70;99.90
9466;DHT22;4771;48.726;9.006;2022-12-07T00:30:21;4.70;99.90
9466;DHT22;4771;48.726;9.006;2022-12-07T00:32:48;4.60;99.90
9466;DHT22;4771;48.726;9.006;2022-12-07T00:35:14;4.30;99.90
9466;DHT22;4771;48.726;9.006;2022-12-07T00:37:41;4.40;99.90
9466;DHT22;4771;48.726;9.006;2022-12-07T00:40:09;4.60;99.90
9466;DHT22;4771;48.726;9.006;2022-12-07T00:42:37;4.60;99.90
9466;DHT22;4771;48.726;9.006;2022-12-07T00:45:05;4.70;99.90
9466;DHT22;4771;48.726;9.006;2022-12-07T00:47:32;4.70;99.90
9466;DHT22;4771;48.726;9.006;2022-12-07T00:49:59;4.70;99.90
9466;DHT22;4771;48.726;9.006;2022-12-07T00:52:26;4.70;99.90
9466;DHT22;4771;48.726;9.006;2022-12-07T00:54:52;4.70;99.90
9466;DHT22;4771;48.726;9.006;2022-12-07T00:57:19;4.70;99.90
9466;DHT22;4771;48.726;9.006;2022-12-07T00:59:48;4.80;99.90
9466;DHT22;4771;48.726;9.006;2022-12-07T01:02:15;4.80;99.90
9466;DHT22;4771;48.726;9.006;2022-12-07T01:04:41;4.90;99.90
9466;DHT22;4771;48.726;9.006;2022-12-07T01:07:08;4.90;99.90
9466;DHT22;4771;48.726;9.006;2022-12-07T01:09:35;5.00;99.90
9466;DHT22;4771;48.726;9.006;2022-12-07T01:12:02;4.90;99.90
9466;DHT22;4771;48.726;9.006;2022-12-07T01:14:29;4.90;99.90
9466;DHT22;4771;48.726;9.006;2022-12-07T01:16:57;4.80;99.90
9466;DHT22;4771;48.726;9.006;2022-12-07T01:19:24;5.00;99.90
9466;DHT22;4771;48.726;9.006;2022-12-07T01:21:51;4.90;99.90
9466;DHT22;4771;48.726;9.006;2022-12-07T01:24:18;5.00;99.90
9466;DHT22;4771;48.726;9.006;2022-12-07T01:26:44;4.90;99.90
9466;DHT22;4771;48.726;9.006;2022-12-07T01:29:11;4.80;99.90
9466;DHT22;4771;48.726;9.006;2022-12-07T01:31:38;4.70;99.90
9466;DHT22;4771;48.726;9.006;2022-12-07T01:34:10;4.80;99.90
9466;DHT22;4771;48.726;9.006;2022-12-07T01:36:36;4.80;99.90
9466;DHT22;4771;48.726;9.006;2022-12-07T01:39:06;4.80;99.90
9466;DHT22;4771;48.726;9.006;2022-12-07T01:41:36;4.80;99.90
9466;DHT22;4771;48.726;9.006;2022-12-07T01:44:14;4.80;99.90
9466;DHT22;4771;48.726;9.006;2022-12-07T01:46:42;4.80;99.90
9466;DHT22;4771;48.726;9.006;2022-12-07T01:49:14;4.80;99.90
9466;DHT22;4771;48.726;9.006;2022-12-07T01:51:43;4.70;99.90
9466;DHT22;4771;48.726;9.006;2022-12-07T01:54:11;4.70;99.90
9466;DHT22;4771;48.726;9.006;2022-12-07T01:56:40;4.70;99.90
9466;DHT22;4771;48.726;9.006;2022-12-07T01:59:08;4.60;99.90
9466;DHT22;4771;48.726;9.006;2022-12-07T02:01:35;4.70;99.90
9466;DHT22;4771;48.726;9.006;2022-12-07T02:04:02;4.70;99.90
9466;DHT22;4771;48.726;9.006;2022-12-07T02:06:31;4.70;99.90
9466;DHT22;4771;48.726;9.006;2022-12-07T02:08:57;4.70;99.90
9466;DHT22;4771;48.726;9.006;2022-12-07T02:11:24;4.60;99.90
9466;DHT22;4771;48.726;9.006;2022-12-07T02:13:51;4.60;99.90
9466;DHT22;4771;48.726;9.006;2022-12-07T02:16:27;4.70;99.90
9466;DHT22;4771;48.726;9.006;2022-12-07T02:19:04;4.60;99.90
9466;DHT22;4771;48.726;9.006;2022-12-07T02:21:41;4.60;99.90
9466;DHT22;4771;48.726;9.006;2022-12-07T02:24:19;4.60;99.90
9466;DHT22;4771;48.726;9.006;2022-12-07T02:29:58;4.60;99.90
9466;DHT22;4771;48.726;9.006;2022-12-07T02:32:34;4.70;99.90
9466;DHT22;4771;48.726;9.006;2022-12-07T02:35:06;4.60;99.90
9466;DHT22;4771;48.726;9.006;2022-12-07T02:37:37;4.60;99.90
9466;DHT22;4771;48.726;9.006;2022-12-07T02:40:10;4.60;99.90
9466;DHT22;4771;48.726;9.006;2022-12-07T02:42:41;4.60;99.90
9466;DHT22;4771;48.726;9.006;2022-12-07T02:45:12;4.60;99.90
9466;DHT22;4771;48.726;9.006;2022-12-07T02:47:41;4.60;99.90
9466;DHT22;4771;48.726;9.006;2022-12-07T02:50:08;4.60;99.90
9466;DHT22;4771;48.726;9.006;2022-12-07T02:52:35;4.60;99.90
9466;DHT22;4771;48.726;9.006;2022-12-07T02:55:03;4.60;99.90
9466;DHT22;4771;48.726;9.006;2022-12-07T02:57:42;4.50;99.90
9466;DHT22;4771;48.726;9.006;2022-12-07T03:00:15;4.50;99.90
9466;DHT22;4771;48.726;9.006;2022-12-07T03:02:51;4.50;99.90
9466;DHT22;4771;48.726;9.006;2022-12-07T03:05:33;4.40;99.90
9466;DHT22;4771;48.726;9.006;2022-12-07T03:08:04;4.40;99.90
9466;DHT22;4771;48.726;9.006;2022-12-07T03:10:38;4.40;99.90
9466;DHT22;4771;48.726;9.006;2022-12-07T03:13:11;4.50;99.90
9466;DHT22;4771;48.726;9.006;2022-12-07T03:15:45;4.40;99.90
9466;DHT22;4771;48.726;9.006;2022-12-07T03:18:19;4.50;99.90
9466;DHT22;4771;48.726;9.006;2022-12-07T03:20:53;4.40;99.90
9466;DHT22;4771;48.726;9.006;2022-12-07T03:23:23;4.40;99.90
9466;DHT22;4771;48.726;9.006;2022-12-07T03:25:55;4.40;99.90
9466;DHT22;4771;48.726;9.006;2022-12-07T03:28:24;4.40;99.90
9466;DHT22;4771;48.726;9.006;2022-12-07T03:30:57;4.40;99.90
9466;DHT22;4771;48.726;9.006;2022-12-07T03:33:30;4.40;99.90
9466;DHT22;4771;48.726;9.006;2022-12-07T03:36:01;4.40;99.90
9466;DHT22;4771;48.726;9.006;2022-12-07T03:38:35;4.40;99.90
9466;DHT22;4771;48.726;9.006;2022-12-07T03:41:07;4.40;99.90
9466;DHT22;4771;48.726;9.006;2022-12-07T03:43:36;4.40;99.90
9466;DHT22;4771;48.726;9.006;2022-12-07T03:46:13;4.30;99.90
9466;DHT22;4771;48.726;9.006;2022-12-07T03:48:47;4.30;99.90
9466;DHT22;4771;48.726;9.006;2022-12-07T03:51:22;4.30;99.90
9466;DHT22;4771;48.726;9.006;2022-12-07T03:53:56;4.20;99.90
9466;DHT22;4771;48.726;9.006;2022-12-07T03:56:26;4.30;99.90
9466;DHT22;4771;48.726;9.006;2022-12-07T03:58:54;4.30;99.90
9466;DHT22;4771;48.726;9.006;2022-12-07T04:01:22;4.20;99.90
9466;DHT22;4771;48.726;9.006;2022-12-07T04:03:49;4.20;99.90
9466;DHT22;4771;48.726;9.006;2022-12-07T04:06:16;4.20;99.90
9466;DHT22;4771;48.726;9.006;2022-12-07T04:08:43;4.20;99.90
9466;DHT22;4771;48.726;9.006;2022-12-07T04:11:10;4.20;99.90
9466;DHT22;4771;48.726;9.006;2022-12-07T04:13:37;4.20;99.90
9466;DHT22;4771;48.726;9.006;2022-12-07T04:16:18;4.20;99.90
9466;DHT22;4771;48.726;9.006;2022-12-07T04:18:46;4.20;99.90
9466;DHT22;4771;48.726;9.006;2022-12-07T04:21:13;4.20;99.90
9466;DHT22;4771;48.726;9.006;2022-12-07T04:23:40;4.20;99.90
9466;DHT22;4771;48.726;9.006;2022-12-07T04:26:07;4.30;99.90
9466;DHT22;4771;48.726;9.006;2022-12-07T04:28:33;4.30;99.90
9466;DHT22;4771;48.726;9.006;2022-12-07T04:31:00;4.20;99.90
9466;DHT22;4771;48.726;9.006;2022-12-07T04:33:27;4.10;99.90
9466;DHT22;4771;48.726;9.006;2022-12-07T04:35:55;4.10;99.90
9466;DHT22;4771;48.726;9.006;2022-12-07T04:38:22;4.10;99.90
9466;DHT22;4771;48.726;9.006;2022-12-07T04:40:49;4.10;99.90
9466;DHT22;4771;48.726;9.006;2022-12-07T04:43:16;4.20;99.90
9466;DHT22;4771;48.726;9.006;2022-12-07T04:45:46;4.10;99.90
9466;DHT22;4771;48.726;9.006;2022-12-07T04:48:13;4.10;99.90
9466;DHT22;4771;48.726;9.006;2022-12-07T04:50:39;4.00;99.90
9466;DHT22;4771;48.726;9.006;2022-12-07T04:53:08;4.00;99.90
9466;DHT22;4771;48.726;9.006;2022-12-07T04:55:34;3.90;99.90
9466;DHT22;4771;48.726;9.006;2022-12-07T04:58:01;3.80;99.90
9466;DHT22;4771;48.726;9.006;2022-12-07T05:00:28;3.80;99.90
9466;DHT22;4771;48.726;9.006;2022-12-07T05:02:55;3.60;99.90
9466;DHT22;4771;48.726;9.006;2022-12-07T05:05:22;3.40;99.90
9466;DHT22;4771;48.726;9.006;2022-12-07T05:07:49;3.40;99.90
9466;DHT22;4771;48.726;9.006;2022-12-07T05:10:18;3.30;99.90
9466;DHT22;4771;48.726;9.006;2022-12-07T05:12:44;3.30;99.90
9466;DHT22;4771;48.726;9.006;2022-12-07T05:15:12;3.30;99.90
9466;DHT22;4771;48.726;9.006;2022-12-07T05:17:39;3.30;99.90
9466;DHT22;4771;48.726;9.006;2022-12-07T05:20:07;3.40;99.90
9466;DHT22;4771;48.726;9.006;2022-12-07T05:22:34;3.40;99.90
9466;DHT22;4771;48.726;9.006;2022-12-07T05:25:01;3.50;99.90
9466;DHT22;4771;48.726;9.006;2022-12-07T05:27:29;3.50;99.90
9466;DHT22;4771;48.726;9.006;2022-12-07T05:29:56;3.40;99.90
9466;DHT22;4771;48.726;9.006;2022-12-07T05:32:23;3.30;99.90
9466;DHT22;4771;48.726;9.006;2022-12-07T05:34:50;3.30;99.90
9466;DHT22;4771;48.726;9.006;2022-12-07T05:37:16;3.30;99.90
9466;DHT22;4771;48.726;9.006;2022-12-07T05:39:43;3.30;99.90
9466;DHT22;4771;48.726;9.006;2022-12-07T05:42:10;3.20;99.90
9466;DHT22;4771;48.726;9.006;2022-12-07T05:44:43;3.10;99.90
9466;DHT22;4771;48.726;9.006;2022-12-07T05:47:10;2.90;99.90
9466;DHT22;4771;48.726;9.006;2022-12-07T05:49:37;2.90;99.90
9466;DHT22;4771;48.726;9.006;2022-12-07T05:52:04;2.80;99.90
9466;DHT22;4771;48.726;9.006;2022-12-07T05:54:31;2.70;99.90
9466;DHT22;4771;48.726;9.006;2022-12-07T05:56:58;2.60;99.90
9466;DHT22;4771;48.726;9.006;2022-12-07T05:59:25;2.70;99.90
9466;DHT22;4771;48.726;9.006;2022-12-07T06:01:55;2.70;99.90
9466;DHT22;4771;48.726;9.006;2022-12-07T06:04:23;2.70;99.90
9466;DHT22;4771;48.726;9.006;2022-12-07T06:06:51;2.70;99.90
9466;DHT22;4771;48.726;9.006;2022-12-07T06:09:18;2.80;99.90
9466;DHT22;4771;48.726;9.006;2022-12-07T06:11:45;2.80;99.90
9466;DHT22;4771;48.726;9.006;2022-12-07T06:14:29;2.70;99.90
9466;DHT22;4771;48.726;9.006;2022-12-07T06:16:58;2.80;99.90
9466;DHT22;4771;48.726;9.006;2022-12-07T06:19:25;2.70;99.90
9466;DHT22;4771;48.726;9.006;2022-12-07T06:21:52;2.80;99.90
9466;DHT22;4771;48.726;9.006;2022-12-07T06:24:19;2.70;99.90
9466;DHT22;4771;48.726;9.006;2022-12-07T06:26:46;2.80;99.90
9466;DHT22;4771;48.726;9.006;2022-12-07T06:29:14;2.80;99.90
9466;DHT22;4771;48.726;9.006;2022-12-07T06:31:41;2.80;99.90
9466;DHT22;4771;48.726;9.006;2022-12-07T06:34:11;2.80;99.90
9466;DHT22;4771;48.726;9.006;2022-12-07T06:36:39;2.90;99.90
9466;DHT22;4771;48.726;9.006;2022-12-07T06:39:06;2.90;99.90
9466;DHT22;4771;48.726;9.006;2022-12-07T06:41:34;3.00;99.90
9466;DHT22;4771;48.726;9.006;2022-12-07T06:44:02;3.00;99.90
9466;DHT22;4771;48.726;9.006;2022-12-07T06:46:28;3.00;99.90
9466;DHT22;4771;48.726;9.006;2022-12-07T06:48:56;3.10;99.90
9466;DHT22;4771;48.726;9.006;2022-12-07T06:51:24;3.10;99.90
9466;DHT22;4771;48.726;9.006;2022-12-07T06:53:51;3.00;99.90
9466;DHT22;4771;48.726;9.006;2022-12-07T06:56:18;2.90;99.90
9466;DHT22;4771;48.726;9.006;2022-12-07T06:58:45;3.10;99.90
9466;DHT22;4771;48.726;9.006;2022-12-07T07:01:13;3.20;99.90
9466;DHT22;4771;48.726;9.006;2022-12-07T07:03:41;3.00;99.90
9466;DHT22;4771;48.726;9.006;2022-12-07T07:06:08;3.10;99.90
9466;DHT22;4771;48.726;9.006;2022-12-07T07:08:37;3.20;99.90
9466;DHT22;4771;48.726;9.006;2022-12-07T07:11:05;3.20;99.90
9466;DHT22;4771;48.726;9.006;2022-12-07T07:13:32;2.90;99.90
9466;DHT22;4771;48.726;9.006;2022-12-07T07:15:59;3.20;99.90
9466;DHT22;4771;48.726;9.006;2022-12-07T07:18:26;3.10;99.90
9466;DHT22;4771;48.726;9.006;2022-12-07T07:20:53;3.20;99.90
9466;DHT22;4771;48.726;9.006;2022-12-07T07:23:21;3.10;99.90
9466;DHT22;4771;48.726;9.006;2022-12-07T07:25:49;3.30;99.90
9466;DHT22;4771;48.726;9.006;2022-12-07T07:28:16;3.40;99.90
9466;DHT22;4771;48.726;9.006;2022-12-07T07:30:43;3.40;99.90
9466;DHT22;4771;48.726;9.006;2022-12-07T07:33:10;3.40;99.90
9466;DHT22;4771;48.726;9.006;2022-12-07T07:35:38;3.40;99.90
9466;DHT22;4771;48.726;9.006;2022-12-07T07:38:05;3.50;99.90
9466;DHT22;4771;48.726;9.006;2022-12-07T07:40:33;3.40;99.90
9466;DHT22;4771;48.726;9.006;2022-12-07T07:43:01;3.50;99.90
9466;DHT22;4771;48.726;9.006;2022-12-07T07:45:28;3.70;99.90
9466;DHT22;4771;48.726;9.006;2022-12-07T07:47:55;3.50;99.90
9466;DHT22;4771;48.726;9.006;2022-12-07T07:50:22;3.50;99.90
9466;DHT22;4771;48.726;9.006;2022-12-07T07:52:49;3.50;99.90
9466;DHT22;4771;48.726;9.006;2022-12-07T07:55:16;3.50;99.90
9466;DHT22;4771;48.726;9.006;2022-12-07T07:57:43;3.50;99.90
9466;DHT22;4771;48.726;9.006;2022-12-07T08:00:13;3.60;99.90
9466;DHT22;4771;48.726;9.006;2022-12-07T08:02:41;3.40;99.90
9466;DHT22;4771;48.726;9.006;2022-12-07T08:05:08;3.60;99.90
9466;DHT22;4771;48.726;9.006;2022-12-07T08:07:35;3.70;99.90
9466;DHT22;4771;48.726;9.006;2022-12-07T08:10:03;3.60;99.90
9466;DHT22;4771;48.726;9.006;2022-12-07T08:12:30;3.70;99.90
9466;DHT22;4771;48.726;9.006;2022-12-07T08:14:57;3.70;99.90
9466;DHT22;4771;48.726;9.006;2022-12-07T08:17:25;3.70;99.90
9466;DHT22;4771;48.726;9.006;2022-12-07T08:19:52;3.60;99.90
9466;DHT22;4771;48.726;9.006;2022-12-07T08:22:19;3.60;99.90
9466;DHT22;4771;48.726;9.006;2022-12-07T08:24:46;3.70;99.90
9466;DHT22;4771;48.726;9.006;2022-12-07T08:27:13;3.70;99.90
9466;DHT22;4771;48.726;9.006;2022-12-07T08:29:39;3.80;99.90
9466;DHT22;4771;48.726;9.006;2022-12-07T08:32:06;3.90;99.90
9466;DHT22;4771;48.726;9.006;2022-12-07T08:34:34;4.00;99.90
9466;DHT22;4771;48.726;9.006;2022-12-07T08:37:02;4.00;99.90
9466;DHT22;4771;48.726;9.006;2022-12-07T08:39:29;4.10;99.90
9466;DHT22;4771;48.726;9.006;2022-12-07T08:41:56;4.20;99.90
9466;DHT22;4771;48.726;9.006;2022-12-07T08:44:23;4.30;99.90
9466;DHT22;4771;48.726;9.006;2022-12-07T08:46:52;4.30;99.90
9466;DHT22;4771;48.726;9.006;2022-12-07T08:49:23;4.40;99.90
9466;DHT22;4771;48.726;9.006;2022-12-07T08:51:55;4.40;99.90
9466;DHT22;4771;48.726;9.006;2022-12-07T08:54:22;4.30;99.90
9466;DHT22;4771;48.726;9.006;2022-12-07T08:56:49;4.40;99.90
9466;DHT22;4771;48.726;9.006;2022-12-07T08:59:18;4.40;99.90
9466;DHT22;4771;48.726;9.006;2022-12-07T09:01:45;4.40;99.90
9466;DHT22;4771;48.726;9.006;2022-12-07T09:04:12;4.50;99.90
9466;DHT22;4771;48.726;9.006;2022-12-07T09:06:40;4.70;99.90
9466;DHT22;4771;48.726;9.006;2022-12-07T09:09:09;4.80;99.90
9466;DHT22;4771;48.726;9.006;2022-12-07T09:11:36;4.60;99.90
9466;DHT22;4771;48.726;9.006;2022-12-07T09:14:04;4.70;99.90
9466;DHT22;4771;48.726;9.006;2022-12-07T09:16:31;4.90;99.90
9466;DHT22;4771;48.726;9.006;2022-12-07T09:18:58;5.00;99.90
9466;DHT22;4771;48.726;9.006;2022-12-07T09:21:25;5.10;99.90
9466;DHT22;4771;48.726;9.006;2022-12-07T09:23:52;4.70;99.90
9466;DHT22;4771;48.726;9.006;2022-12-07T09:26:20;5.00;99.90
9466;DHT22;4771;48.726;9.006;2022-12-07T09:28:47;5.00;99.90
9466;DHT22;4771;48.726;9.006;2022-12-07T09:31:14;5.00;99.90
9466;DHT22;4771;48.726;9.006;2022-12-07T09:33:41;4.90;99.90
9466;DHT22;4771;48.726;9.006;2022-12-07T09:36:08;5.00;99.90
9466;DHT22;4771;48.726;9.006;2022-12-07T09:38:35;5.00;99.90
9466;DHT22;4771;48.726;9.006;2022-12-07T09:41:05;5.00;99.90
9466;DHT22;4771;48.726;9.006;2022-12-07T09:43:35;5.10;99.90
9466;DHT22;4771;48.726;9.006;2022-12-07T09:46:03;5.20;99.90
9466;DHT22;4771;48.726;9.006;2022-12-07T09:48:33;5.30;99.90
9466;DHT22;4771;48.726;9.006;2022-12-07T09:51:10;5.40;99.90
9466;DHT22;4771;48.726;9.006;2022-12-07T09:53:39;5.50;99.90
9466;DHT22;4771;48.726;9.006;2022-12-07T09:56:10;5.60;99.90
9466;DHT22;4771;48.726;9.006;2022-12-07T09:58:39;5.70;99.90
9466;DHT22;4771;48.726;9.006;2022-12-07T10:01:12;5.60;99.90
9466;DHT22;4771;48.726;9.006;2022-12-07T10:03:42;5.60;99.90
9466;DHT22;4771;48.726;9.006;2022-12-07T10:06:12;5.80;99.90
9466;DHT22;4771;48.726;9.006;2022-12-07T10:08:39;5.80;99.90
9466;DHT22;4771;48.726;9.006;2022-12-07T10:11:07;6.00;99.90
9466;DHT22;4771;48.726;9.006;2022-12-07T10:13:37;6.10;99.90
9466;DHT22;4771;48.726;9.006;2022-12-07T10:16:08;5.40;99.90
9466;DHT22;4771;48.726;9.006;2022-12-07T10:18:53;5.20;99.90
9466;DHT22;4771;48.726;9.006;2022-12-07T10:21:22;5.30;99.90
9466;DHT22;4771;48.726;9.006;2022-12-07T10:24:00;5.40;99.90
9466;DHT22;4771;48.726;9.006;2022-12-07T10:26:31;5.60;99.90
9466;DHT22;4771;48.726;9.006;2022-12-07T10:28:59;5.70;99.90
9466;DHT22;4771;48.726;9.006;2022-12-07T10:31:29;5.90;99.90
9466;DHT22;4771;48.726;9.006;2022-12-07T10:33:58;5.60;99.90
9466;DHT22;4771;48.726;9.006;2022-12-07T10:36:27;5.70;99.90
9466;DHT22;4771;48.726;9.006;2022-12-07T10:39:00;5.70;99.90
9466;DHT22;4771;48.726;9.006;2022-12-07T10:41:27;5.90;99.90
9466;DHT22;4771;48.726;9.006;2022-12-07T10:43:56;5.60;99.90
9466;DHT22;4771;48.726;9.006;2022-12-07T10:52:39;5.50;99.90
9466;DHT22;4771;48.726;9.006;2022-12-07T10:55:18;5.30;99.90
9466;DHT22;4771;48.726;9.006;2022-12-07T10:57:56;5.50;99.90
9466;DHT22;4771;48.726;9.006;2022-12-07T11:00:26;5.90;99.90
9466;DHT22;4771;48.726;9.006;2022-12-07T11:03:21;5.90;99.90
9466;DHT22;4771;48.726;9.006;2022-12-07T11:05:56;6.50;99.90
9466;DHT22;4771;48.726;9.006;2022-12-07T11:08:39;5.70;99.90
9466;DHT22;4771;48.726;9.006;2022-12-07T11:11:13;5.70;99.90
9466;DHT22;4771;48.726;9.006;2022-12-07T11:13:46;6.00;99.90
9466;DHT22;4771;48.726;9.006;2022-12-07T11:16:25;6.10;99.90
9466;DHT22;4771;48.726;9.006;2022-12-07T11:19:14;5.90;99.90
9466;DHT22;4771;48.726;9.006;2022-12-07T11:21:50;6.10;99.90
9466;DHT22;4771;48.726;9.006;2022-12-07T11:24:24;6.10;99.90
9466;DHT22;4771;48.726;9.006;2022-12-07T11:27:15;6.00;99.90
9466;DHT22;4771;48.726;9.006;2022-12-07T11:29:57;5.90;99.90
9466;DHT22;4771;48.726;9.006;2022-12-07T11:32:45;5.50;99.90
9466;DHT22;4771;48.726;9.006;2022-12-07T11:35:24;5.70;99.90
9466;DHT22;4771;48.726;9.006;2022-12-07T11:38:00;5.70;99.90
9466;DHT22;4771;48.726;9.006;2022-12-07T11:40:30;5.80;99.90
9466;DHT22;4771;48.726;9.006;2022-12-07T11:43:04;6.00;99.90
9466;DHT22;4771;48.726;9.006;2022-12-07T11:45:33;6.20;99.90
9466;DHT22;4771;48.726;9.006;2022-12-07T11:48:02;6.00;99.90
9466;DHT22;4771;48.726;9.006;2022-12-07T11:50:36;5.80;99.90
9466;DHT22;4771;48.726;9.006;2022-12-07T11:53:09;5.80;99.90
9466;DHT22;4771;48.726;9.006;2022-12-07T11:55:42;5.50;99.90
9466;DHT22;4771;48.726;9.006;2022-12-07T12:01:11;5.90;99.90
9466;DHT22;4771;48.726;9.006;2022-12-07T12:03:41;5.70;99.90
9466;DHT22;4771;48.726;9.006;2022-12-07T12:06:11;5.80;99.90
9466;DHT22;4771;48.726;9.006;2022-12-07T12:08:40;5.80;99.90
9466;DHT22;4771;48.726;9.006;2022-12-07T12:11:18;5.60;99.90
9466;DHT22;4771;48.726;9.006;2022-12-07T12:14:10;5.70;99.90
9466;DHT22;4771;48.726;9.006;2022-12-07T12:17:06;5.40;99.90
9466;DHT22;4771;48.726;9.006;2022-12-07T12:19:40;5.50;99.90
9466;DHT22;4771;48.726;9.006;2022-12-07T12:22:14;5.60;99.90
9466;DHT22;4771;48.726;9.006;2022-12-07T12:24:43;5.50;99.90
9466;DHT22;4771;48.726;9.006;2022-12-07T12:27:26;5.50;99.90
9466;DHT22;4771;48.726;9.006;2022-12-07T12:29:57;5.30;99.90
9466;DHT22;4771;48.726;9.006;2022-12-07T12:32:34;5.30;99.90
9466;DHT22;4771;48.726;9.006;2022-12-07T12:35:26;5.40;99.90
9466;DHT22;4771;48.726;9.006;2022-12-07T12:37:55;5.60;99.90
9466;DHT22;4771;48.726;9.006;2022-12-07T12:40:41;5.50;99.90
9466;DHT22;4771;48.726;9.006;2022-12-07T12:43:42;5.50;99.90
9466;DHT22;4771;48.726;9.006;2022-12-07T12:46:36;5.50;99.90
9466;DHT22;4771;48.726;9.006;2022-12-07T12:55:22;5.80;99.90
9466;DHT22;4771;48.726;9.006;2022-12-07T13:03:54;5.80;99.90
9466;DHT22;4771;48.726;9.006;2022-12-07T13:06:34;5.80;99.90
9466;DHT22;4771;48.726;9.006;2022-12-07T13:09:03;5.80;99.90
9466;DHT22;4771;48.726;9.006;2022-12-07T13:11:33;5.90;99.90
9466;DHT22;4771;48.726;9.006;2022-12-07T13:14:43;5.80;99.90
9466;DHT22;4771;48.726;9.006;2022-12-07T13:17:11;6.00;99.90
9466;DHT22;4771;48.726;9.006;2022-12-07T13:19:59;6.10;99.90
9466;DHT22;4771;48.726;9.006;2022-12-07T13:22:46;6.30;99.90
9466;DHT22;4771;48.726;9.006;2022-12-07T13:25:26;6.50;99.90
9466;DHT22;4771;48.726;9.006;2022-12-07T13:27:57;6.40;99.90
9466;DHT22;4771;48.726;9.006;2022-12-07T13:30:26;6.40;99.90
9466;DHT22;4771;48.726;9.006;2022-12-07T13:32:55;6.40;99.90
9466;DHT22;4771;48.726;9.006;2022-12-07T13:35:33;6.40;99.90
9466;DHT22;4771;48.726;9.006;2022-12-07T13:38:05;6.40;99.90
9466;DHT22;4771;48.726;9.006;2022-12-07T13:40:33;6.30;99.90
9466;DHT22;4771;48.726;9.006;2022-12-07T13:43:03;6.30;99.90
9466;DHT22;4771;48.726;9.006;2022-12-07T13:45:32;6.30;99.90
9466;DHT22;4771;48.726;9.006;2022-12-07T13:48:24;6.30;99.90
9466;DHT22;4771;48.726;9.006;2022-12-07T13:50:54;6.30;99.90
9466;DHT22;4771;48.726;9.006;2022-12-07T13:53:22;6.30;99.90
9466;DHT22;4771;48.726;9.006;2022-12-07T13:55:49;6.30;99.90
9466;DHT22;4771;48.726;9.006;2022-12-07T13:58:18;6.30;99.90
9466;DHT22;4771;48.726;9.006;2022-12-07T14:00:44;6.20;99.90
9466;DHT22;4771;48.726;9.006;2022-12-07T14:03:29;5.80;99.90
9466;DHT22;4771;48.726;9.006;2022-12-07T14:06:13;5.60;99.90
9466;DHT22;4771;48.726;9.006;2022-12-07T14:08:43;5.70;99.90
9466;DHT22;4771;48.726;9.006;2022-12-07T14:11:17;5.80;99.90
9466;DHT22;4771;48.726;9.006;2022-12-07T14:13:55;5.40;99.90
9466;DHT22;4771;48.726;9.006;2022-12-07T14:16:27;4.90;99.90
9466;DHT22;4771;48.726;9.006;2022-12-07T14:18:56;5.10;99.90
9466;DHT22;4771;48.726;9.006;2022-12-07T14:21:24;5.00;99.90
9466;DHT22;4771;48.726;9.006;2022-12-07T14:24:16;5.10;99.90
9466;DHT22;4771;48.726;9.006;2022-12-07T14:26:44;4.70;99.90
9466;DHT22;4771;48.726;9.006;2022-12-07T14:29:31;4.40;99.90
9466;DHT22;4771;48.726;9.006;2022-12-07T14:32:18;4.50;99.90
9466;DHT22;4771;48.726;9.006;2022-12-07T14:35:00;4.40;99.90
9466;DHT22;4771;48.726;9.006;2022-12-07T14:37:28;4.60;99.90
9466;DHT22;4771;48.726;9.006;2022-12-07T14:39:56;4.90;99.90
9466;DHT22;4771;48.726;9.006;2022-12-07T14:42:26;5.00;99.90
9466;DHT22;4771;48.726;9.006;2022-12-07T14:44:55;5.10;99.90
9466;DHT22;4771;48.726;9.006;2022-12-07T14:47:22;4.70;99.90
9466;DHT22;4771;48.726;9.006;2022-12-07T14:49:50;4.60;99.90
9466;DHT22;4771;48.726;9.006;2022-12-07T14:52:18;4.80;99.90
9466;DHT22;4771;48.726;9.006;2022-12-07T14:54:46;4.70;99.90
9466;DHT22;4771;48.726;9.006;2022-12-07T14:57:13;4.80;99.90
9466;DHT22;4771;48.726;9.006;2022-12-07T14:59:40;4.60;99.90
9466;DHT22;4771;48.726;9.006;2022-12-07T15:02:10;4.70;99.90
9466;DHT22;4771;48.726;9.006;2022-12-07T15:04:38;5.00;99.90
9466;DHT22;4771;48.726;9.006;2022-12-07T15:07:08;5.10;99.90
9466;DHT22;4771;48.726;9.006;2022-12-07T15:09:35;5.20;99.90
9466;DHT22;4771;48.726;9.006;2022-12-07T15:12:02;5.20;99.90
9466;DHT22;4771;48.726;9.006;2022-12-07T15:14:29;5.20;99.90
9466;DHT22;4771;48.726;9.006;2022-12-07T15:16:56;5.30;99.90
9466;DHT22;4771;48.726;9.006;2022-12-07T15:19:25;5.20;99.90
9466;DHT22;4771;48.726;9.006;2022-12-07T15:21:52;5.20;99.90
9466;DHT22;4771;48.726;9.006;2022-12-07T15:24:20;5.30;99.90
9466;DHT22;4771;48.726;9.006;2022-12-07T15:26:47;5.30;99.90
9466;DHT22;4771;48.726;9.006;2022-12-07T15:29:14;5.20;99.90
9466;DHT22;4771;48.726;9.006;2022-12-07T15:31:42;5.30;99.90
9466;DHT22;4771;48.726;9.006;2022-12-07T15:34:09;5.10;99.90
9466;DHT22;4771;48.726;9.006;2022-12-07T15:36:37;5.20;99.90
9466;DHT22;4771;48.726;9.006;2022-12-07T15:39:04;5.20;99.90
9466;DHT22;4771;48.726;9.006;2022-12-07T15:41:31;5.20;99.90
9466;DHT22;4771;48.726;9.006;2022-12-07T15:43:58;4.90;99.90
9466;DHT22;4771;48.726;9.006;2022-12-07T15:46:42;4.70;99.90
9466;DHT22;4771;48.726;9.006;2022-12-07T15:49:12;4.80;99.90
9466;DHT22;4771;48.726;9.006;2022-12-07T15:51:41;4.50;99.90
9466;DHT22;4771;48.726;9.006;2022-12-07T15:54:12;4.50;99.90
9466;DHT22;4771;48.726;9.006;2022-12-07T15:56:39;4.50;99.90
9466;DHT22;4771;48.726;9.006;2022-12-07T15:59:06;4.60;99.90
9466;DHT22;4771;48.726;9.006;2022-12-07T16:01:33;4.70;99.90
9466;DHT22;4771;48.726;9.006;2022-12-07T16:04:00;4.70;99.90
9466;DHT22;4771;48.726;9.006;2022-12-07T16:06:26;4.70;99.90
9466;DHT22;4771;48.726;9.006;2022-12-07T16:08:55;4.70;99.90
9466;DHT22;4771;48.726;9.006;2022-12-07T16:11:22;4.70;99.90
9466;DHT22;4771;48.726;9.006;2022-12-07T16:13:49;4.70;99.90
9466;DHT22;4771;48.726;9.006;2022-12-07T16:16:17;4.80;99.90
9466;DHT22;4771;48.726;9.006;2022-12-07T16:18:45;4.80;99.90
9466;DHT22;4771;48.726;9.006;2022-12-07T16:21:13;4.60;99.90
9466;DHT22;4771;48.726;9.006;2022-12-07T16:23:41;4.60;99.90
9466;DHT22;4771;48.726;9.006;2022-12-07T16:26:11;4.50;99.90
9466;DHT22;4771;48.726;9.006;2022-12-07T16:28:38;4.60;99.90
9466;DHT22;4771;48.726;9.006;2022-12-07T16:31:07;4.60;99.90
9466;DHT22;4771;48.726;9.006;2022-12-07T16:33:36;4.50;99.90
9466;DHT22;4771;48.726;9.006;2022-12-07T16:36:04;4.50;99.90
9466;DHT22;4771;48.726;9.006;2022-12-07T16:38:31;4.50;99.90
9466;DHT22;4771;48.726;9.006;2022-12-07T16:40:58;4.40;99.90
9466;DHT22;4771;48.726;9.006;2022-12-07T16:43:27;4.40;99.90
9466;DHT22;4771;48.726;9.006;2022-12-07T16:45:54;4.40;99.90
9466;DHT22;4771;48.726;9.006;2022-12-07T16:48:21;4.30;99.90
9466;DHT22;4771;48.726;9.006;2022-12-07T16:50:48;4.10;99.90
9466;DHT22;4771;48.726;9.006;2022-12-07T16:53:15;4.00;99.90
9466;DHT22;4771;48.726;9.006;2022-12-07T16:55:44;4.10;99.90
9466;DHT22;4771;48.726;9.006;2022-12-07T16:58:11;4.20;99.90
9466;DHT22;4771;48.726;9.006;2022-12-07T17:00:41;4.20;99.90